Terminal Aerodrome Forecast
Issued by NWS Twin Cities, MN

Home | Current Version | Previous Version | Text Only | Print | Product List | Glossary Off
Versions: 1 2 3 4 5 6 7 8 9 10 11 12 13 14 15 16 17 18 19 20 21 22 23 24 25 26 27 28

579
FTUS43 KMPX 201507 AAA
TAFMSP
TAF AMD
KMSP 201507Z 2015/2118 24005KT P6SM SCT070
     FM201700 28006KT P6SM FEW070 SCT120
     FM202100 31007KT P6SM SCT150
     FM210200 35005KT P6SM SCT100 SCT250
     FM211100 03006KT P6SM SCT100 BKN250=

USA.gov is the U.S. government's official web portal to all federal, state and local government web resources and services.